Time;durP1;ratioP1;P1;durP2;ratioP2;P2;SDS_P1;SDS_P2;PMS_P1;PMS_P2;Temp;Humidity;BMP_temperature;BMP_pressure;BME280_temperature;BME280_humidity;BME280_pressure;Samples;Min_cycle;Max_cycle;Signal;HPM_P1;HPM_P2
2022/03/19 00:00:19;;;;;;;100.10;57.95;;;4.80;99.90;;;;;;2061900;28;20035;-70
2022/03/19 00:01:20;;;;;;;103.80;60.45;;;4.90;99.90;;;;;;2062098;28;20052;-70
2022/03/19 00:02:21;;;;;;;103.68;59.47;;;4.80;99.90;;;;;;2053515;28;20092;-71
2022/03/19 00:03:29;;;;;;;100.97;58.70;;;4.80;99.90;;;;;;2062172;28;20027;-71
2022/03/19 00:04:32;;;;;;;101.22;57.63;;;4.80;99.90;;;;;;2061887;28;20041;-71
2022/03/19 00:05:33;;;;;;;98.18;57.90;;;4.80;99.90;;;;;;2061465;28;20038;-70
2022/03/19 00:06:40;;;;;;;104.05;58.65;;;4.80;99.90;;;;;;2061820;28;20386;-71
2022/03/19 00:07:45;;;;;;;103.50;58.47;;;4.80;99.90;;;;;;2062111;28;20401;-71
2022/03/19 00:08:46;;;;;;;104.93;59.13;;;4.80;99.90;;;;;;2061245;28;20855;-71
2022/03/19 00:09:47;;;;;;;102.45;59.35;;;4.80;99.90;;;;;;2061675;28;20038;-72
2022/03/19 00:10:48;;;;;;;99.90;58.55;;;4.80;99.90;;;;;;2061626;28;20042;-70
2022/03/19 00:11:49;;;;;;;99.13;57.95;;;4.80;99.90;;;;;;2061652;28;20470;-70
2022/03/19 00:12:53;;;;;;;94.97;56.10;;;4.70;99.90;;;;;;2053966;28;20038;-72
2022/03/19 00:13:56;;;;;;;97.88;57.20;;;4.80;99.90;;;;;;2054436;28;20030;-71
2022/03/19 00:15:00;;;;;;;97.13;57.17;;;4.70;99.90;;;;;;2061701;28;20081;-71
2022/03/19 00:16:00;;;;;;;97.00;56.25;;;4.70;99.90;;;;;;2062371;28;20022;-71
2022/03/19 00:17:04;;;;;;;95.97;56.88;;;4.70;99.90;;;;;;2061985;28;20041;-71
2022/03/19 00:18:06;;;;;;;98.85;56.88;;;4.70;99.90;;;;;;2062037;28;20023;-71
2022/03/19 00:19:08;;;;;;;100.03;58.13;;;4.60;99.90;;;;;;2054282;28;20064;-71
2022/03/19 00:20:09;;;;;;;102.20;58.33;;;4.60;99.90;;;;;;2054168;28;20429;-72
2022/03/19 00:21:10;;;;;;;106.47;59.60;;;4.60;99.90;;;;;;2062056;28;20646;-72
2022/03/19 00:22:11;;;;;;;103.10;58.83;;;4.60;99.90;;;;;;2062739;28;20057;-72
2022/03/19 00:23:15;;;;;;;100.70;58.50;;;4.60;99.90;;;;;;2063005;28;20022;-71
2022/03/19 00:24:16;;;;;;;102.10;58.97;;;4.60;99.90;;;;;;2071591;28;20034;-72
2022/03/19 00:25:23;;;;;;;101.28;57.58;;;4.60;99.90;;;;;;2071401;28;20570;-71
2022/03/19 00:26:24;;;;;;;98.47;57.35;;;4.60;99.90;;;;;;2055331;28;20031;-70
2022/03/19 00:27:25;;;;;;;100.75;57.45;;;4.60;99.90;;;;;;2054977;28;20098;-70
2022/03/19 00:28:26;;;;;;;97.03;56.88;;;4.50;99.90;;;;;;2054883;28;20047;-70
2022/03/19 00:29:26;;;;;;;100.38;58.22;;;4.50;99.90;;;;;;2054772;28;20034;-70
2022/03/19 00:30:29;;;;;;;101.07;59.40;;;4.50;99.90;;;;;;2063353;28;20036;-71
2022/03/19 00:31:33;;;;;;;109.07;61.67;;;4.50;99.90;;;;;;2063544;28;20061;-71
2022/03/19 00:32:35;;;;;;;106.50;62.03;;;4.50;99.90;;;;;;2062840;28;20502;-71
2022/03/19 00:33:38;;;;;;;108.47;61.85;;;4.50;99.90;;;;;;2062902;28;20082;-71
2022/03/19 00:34:39;;;;;;;107.75;61.38;;;4.50;99.90;;;;;;2054264;28;20023;-71
2022/03/19 00:35:42;;;;;;;107.30;62.17;;;4.50;99.90;;;;;;2047260;28;20031;-71
2022/03/19 00:36:43;;;;;;;106.18;61.13;;;4.50;99.90;;;;;;2062712;28;20019;-70
2022/03/19 00:37:52;;;;;;;110.57;61.80;;;4.50;99.90;;;;;;2062580;28;20053;-71
2022/03/19 00:38:54;;;;;;;110.95;61.67;;;4.50;99.90;;;;;;2063687;28;20125;-72
2022/03/19 00:39:55;;;;;;;108.63;61.65;;;4.40;99.90;;;;;;2062769;28;20068;-71
2022/03/19 00:41:04;;;;;;;109.00;61.47;;;4.40;99.90;;;;;;2054872;28;20038;-71
2022/03/19 00:42:08;;;;;;;107.18;61.80;;;4.40;99.90;;;;;;2056081;28;20046;-71
2022/03/19 00:43:12;;;;;;;108.43;61.65;;;4.40;99.90;;;;;;2062620;28;20050;-72
2022/03/19 00:44:12;;;;;;;109.03;62.33;;;4.40;99.90;;;;;;2063336;28;20466;-71
2022/03/19 00:45:13;;;;;;;107.82;62.08;;;4.30;99.90;;;;;;2063063;28;20026;-71
2022/03/19 00:46:15;;;;;;;110.55;64.70;;;4.30;99.90;;;;;;2070619;28;20022;-71
2022/03/19 00:47:16;;;;;;;110.53;62.30;;;4.30;99.90;;;;;;2070523;28;20025;-71
2022/03/19 00:48:20;;;;;;;112.07;63.97;;;4.30;99.90;;;;;;2070512;28;20030;-71
2022/03/19 00:49:21;;;;;;;104.95;62.03;;;4.30;99.90;;;;;;2054576;28;20045;-71
2022/03/19 00:50:22;;;;;;;106.25;61.47;;;4.30;99.90;;;;;;2054289;28;20026;-70
2022/03/19 00:51:22;;;;;;;106.05;60.45;;;4.20;99.90;;;;;;2063065;28;20062;-70
2022/03/19 00:52:26;;;;;;;106.43;61.90;;;4.20;99.90;;;;;;2062581;28;20590;-71
2022/03/19 00:53:27;;;;;;;111.68;62.22;;;4.20;99.90;;;;;;2062475;28;20031;-71
2022/03/19 00:54:30;;;;;;;107.47;62.55;;;4.20;99.90;;;;;;2070454;28;20029;-72
2022/03/19 00:55:31;;;;;;;108.45;62.55;;;4.20;99.90;;;;;;2069895;28;20040;-71
2022/03/19 00:56:31;;;;;;;111.78;63.05;;;4.20;99.90;;;;;;2062964;28;20050;-71
2022/03/19 00:57:43;;;;;;;110.30;63.40;;;4.20;99.90;;;;;;2063182;28;20078;-70
2022/03/19 00:58:44;;;;;;;117.18;63.55;;;4.20;99.90;;;;;;2063321;28;20046;-70
2022/03/19 00:59:44;;;;;;;109.72;62.40;;;4.20;99.90;;;;;;2070414;28;20109;-71
2022/03/19 01:00:50;;;;;;;107.75;61.63;;;4.20;99.90;;;;;;2070708;28;20473;-71
2022/03/19 01:01:51;;;;;;;115.88;64.30;;;4.20;99.90;;;;;;2070640;28;20041;-71
2022/03/19 01:02:53;;;;;;;113.22;64.00;;;4.20;99.90;;;;;;2070752;28;20022;-71
2022/03/19 01:03:54;;;;;;;113.45;63.58;;;4.20;99.90;;;;;;2063246;28;20062;-71
2022/03/19 01:04:55;;;;;;;112.15;62.83;;;4.20;99.90;;;;;;2062928;28;20092;-70
2022/03/19 01:05:56;;;;;;;118.05;66.28;;;4.10;99.90;;;;;;2070490;28;20026;-71
2022/03/19 01:06:57;;;;;;;108.72;63.92;;;4.10;99.90;;;;;;2070616;28;20097;-71
2022/03/19 01:08:00;;;;;;;112.85;64.45;;;4.10;99.90;;;;;;2062430;28;20022;-71
2022/03/19 01:09:00;;;;;;;113.15;64.47;;;4.20;99.90;;;;;;2070179;28;20038;-72
2022/03/19 01:10:01;;;;;;;108.53;63.13;;;4.20;99.90;;;;;;2062159;28;20520;-72
2022/03/19 01:11:02;;;;;;;110.80;63.90;;;4.20;99.90;;;;;;2054244;28;20037;-70
2022/03/19 01:12:02;;;;;;;110.03;61.80;;;4.20;99.90;;;;;;2062534;28;20035;-70
2022/03/19 01:13:05;;;;;;;113.07;64.65;;;4.20;99.90;;;;;;2063131;28;20109;-72
2022/03/19 01:14:09;;;;;;;107.70;62.05;;;4.20;99.90;;;;;;2062561;28;20023;-70
2022/03/19 01:15:11;;;;;;;104.03;59.97;;;4.30;99.90;;;;;;2062181;28;20037;-71
2022/03/19 01:16:11;;;;;;;108.25;60.38;;;4.30;99.90;;;;;;2062875;28;20057;-71
2022/03/19 01:17:15;;;;;;;105.13;59.90;;;4.30;99.90;;;;;;2063360;28;20031;-71
2022/03/19 01:18:19;;;;;;;104.63;59.78;;;4.30;99.90;;;;;;2062401;28;20030;-71
2022/03/19 01:19:52;;;;;;;99.97;58.85;;;4.40;99.90;;;;;;2062302;28;20073;-72
2022/03/19 01:20:41;;;;;;;101.63;57.17;;;4.40;99.90;;;;;;2062567;28;20030;-72
2022/03/19 01:21:42;;;;;;;97.55;56.95;;;4.40;99.90;;;;;;2063657;28;20034;-70
2022/03/19 01:22:45;;;;;;;97.20;55.85;;;4.50;99.90;;;;;;2062263;28;20103;-72
2022/03/19 01:23:49;;;;;;;100.82;57.63;;;4.50;99.90;;;;;;2063117;28;20030;-72
2022/03/19 01:25:03;;;;;;;93.57;54.53;;;4.50;99.90;;;;;;2062590;28;20030;-73
2022/03/19 01:26:07;;;;;;;92.47;54.53;;;4.50;99.90;;;;;;2062863;28;20027;-69
2022/03/19 01:27:11;;;;;;;98.63;56.55;;;4.50;99.90;;;;;;2063197;28;20030;-69
2022/03/19 01:28:11;;;;;;;93.97;54.08;;;4.50;99.90;;;;;;2062595;28;20038;-70
2022/03/19 01:29:12;;;;;;;94.35;55.30;;;4.50;99.90;;;;;;2046322;28;20031;-72
2022/03/19 01:30:14;;;;;;;95.82;55.10;;;4.40;99.90;;;;;;2054262;28;20054;-72
2022/03/19 01:31:21;;;;;;;92.68;52.63;;;4.40;99.90;;;;;;2062169;28;20030;-71
2022/03/19 01:32:25;;;;;;;93.88;53.72;;;4.40;99.90;;;;;;2062524;28;20114;-72
2022/03/19 01:33:29;;;;;;;100.38;57.28;;;4.40;99.90;;;;;;2047409;28;20027;-71
2022/03/19 01:34:30;;;;;;;95.38;55.63;;;4.40;99.90;;;;;;2054495;28;20058;-70
2022/03/19 01:35:32;;;;;;;100.13;57.35;;;4.40;99.90;;;;;;2062453;28;20045;-70
2022/03/19 01:36:33;;;;;;;94.90;55.47;;;4.50;99.90;;;;;;2062348;28;20065;-71
2022/03/19 01:37:34;;;;;;;99.43;57.03;;;4.40;99.90;;;;;;2062335;28;20160;-70
2022/03/19 01:38:38;;;;;;;99.75;58.70;;;4.50;99.90;;;;;;2054349;28;20023;-71
2022/03/19 01:39:39;;;;;;;99.22;56.83;;;4.40;99.90;;;;;;2054798;28;20499;-72
2022/03/19 01:40:43;;;;;;;100.10;58.15;;;4.40;99.90;;;;;;2062353;28;20031;-71
2022/03/19 01:41:44;;;;;;;98.22;57.47;;;4.40;99.90;;;;;;2063103;28;20397;-71
2022/03/19 01:42:47;;;;;;;100.20;57.58;;;4.40;99.90;;;;;;2063393;28;20038;-73
2022/03/19 01:43:51;;;;;;;100.47;57.70;;;4.30;99.90;;;;;;2062834;28;20374;-72
2022/03/19 01:44:58;;;;;;;98.93;56.28;;;4.30;99.90;;;;;;2062196;28;20030;-72
2022/03/19 01:45:59;;;;;;;99.20;56.42;;;4.20;99.90;;;;;;2055404;28;20039;-71
2022/03/19 01:47:03;;;;;;;102.10;58.35;;;4.20;99.90;;;;;;2062694;28;20023;-70
2022/03/19 01:48:03;;;;;;;99.05;57.72;;;4.20;99.90;;;;;;2062937;28;20069;-70
2022/03/19 01:49:04;;;;;;;100.10;57.25;;;4.20;99.90;;;;;;2070693;28;20061;-71
2022/03/19 01:50:09;;;;;;;99.47;55.72;;;4.10;99.90;;;;;;2054572;28;20037;-70
2022/03/19 01:51:10;;;;;;;98.72;56.42;;;4.10;99.90;;;;;;2054687;28;20031;-72
2022/03/19 01:52:13;;;;;;;98.20;56.22;;;4.10;99.90;;;;;;2046484;28;20039;-71
2022/03/19 01:53:14;;;;;;;99.60;57.20;;;4.10;99.90;;;;;;2063359;28;20022;-73
2022/03/19 01:54:16;;;;;;;95.68;55.72;;;4.10;99.90;;;;;;2071724;28;20472;-73
2022/03/19 01:55:19;;;;;;;91.10;53.60;;;4.20;99.90;;;;;;2063288;28;20029;-71
2022/03/19 01:56:20;;;;;;;95.15;53.58;;;4.10;99.90;;;;;;2062747;28;20132;-70
2022/03/19 01:57:27;;;;;;;96.97;53.08;;;4.20;99.90;;;;;;2062752;28;20046;-71
2022/03/19 01:58:28;;;;;;;89.88;52.05;;;4.30;99.90;;;;;;2063360;28;20046;-72
2022/03/19 01:59:34;;;;;;;91.82;52.65;;;4.30;99.90;;;;;;2070668;28;20045;-73
2022/03/19 02:00:46;;;;;;;92.57;52.40;;;4.30;99.90;;;;;;2070799;28;20038;-71
2022/03/19 02:01:47;;;;;;;87.00;49.80;;;4.40;99.90;;;;;;2069381;28;20100;-70
2022/03/19 02:02:50;;;;;;;83.85;49.88;;;4.50;99.90;;;;;;2070179;28;20030;-70
2022/03/19 02:03:52;;;;;;;87.53;50.08;;;4.50;99.90;;;;;;2070197;28;20038;-70
2022/03/19 02:04:55;;;;;;;91.28;52.20;;;4.50;99.90;;;;;;2061869;28;20050;-71
2022/03/19 02:06:01;;;;;;;84.15;48.70;;;4.50;99.90;;;;;;2062214;28;20030;-71
2022/03/19 02:07:02;;;;;;;86.00;50.17;;;4.50;99.90;;;;;;2062962;28;20437;-70
2022/03/19 02:08:06;;;;;;;86.63;49.47;;;4.50;99.90;;;;;;2062858;28;20133;-70
2022/03/19 02:09:06;;;;;;;88.05;50.28;;;4.50;99.90;;;;;;2062580;28;20589;-70
2022/03/19 02:10:11;;;;;;;87.63;49.63;;;4.50;99.90;;;;;;2069932;28;20362;-70
2022/03/19 02:11:12;;;;;;;85.38;48.30;;;4.50;99.90;;;;;;2069725;28;20082;-70
2022/03/19 02:12:13;;;;;;;83.20;48.22;;;4.50;99.90;;;;;;2061948;28;20079;-70
2022/03/19 02:13:14;;;;;;;84.97;48.28;;;4.50;99.90;;;;;;2062150;28;20019;-70
2022/03/19 02:14:18;;;;;;;84.53;48.00;;;4.60;99.90;;;;;;2062594;28;20587;-70
2022/03/19 02:15:22;;;;;;;85.10;48.55;;;4.60;99.90;;;;;;2069654;28;20521;-69
2022/03/19 02:16:24;;;;;;;88.05;49.33;;;4.60;99.90;;;;;;2069625;28;20497;-72
2022/03/19 02:17:26;;;;;;;88.78;49.90;;;4.60;99.90;;;;;;2062492;28;20054;-70
2022/03/19 02:18:29;;;;;;;84.05;47.38;;;4.60;99.90;;;;;;2070324;28;20053;-70
2022/03/19 02:19:32;;;;;;;81.68;45.75;;;4.60;99.90;;;;;;2061995;28;20040;-70
2022/03/19 02:20:36;;;;;;;81.10;46.72;;;4.60;99.90;;;;;;2054293;28;20038;-70
2022/03/19 02:21:41;;;;;;;83.35;47.17;;;4.60;99.90;;;;;;2054595;28;20088;-70
2022/03/19 02:25:34;;;;;;;74.68;44.58;;;4.60;99.90;;;;;;2054807;28;20096;-69
2022/03/19 02:25:35;;;;;;;75.22;42.10;;;4.60;99.90;;;;;;2062003;28;20069;-71
2022/03/19 02:26:46;;;;;;;74.03;40.75;;;4.60;99.90;;;;;;2063462;28;20041;-71
2022/03/19 02:27:47;;;;;;;70.65;39.17;;;4.70;99.90;;;;;;2069180;28;20144;-71
2022/03/19 02:28:50;;;;;;;68.82;37.83;;;4.70;99.90;;;;;;2053859;28;20046;-71
2022/03/19 02:29:53;;;;;;;69.60;37.75;;;4.70;99.90;;;;;;2054465;28;20073;-71
2022/03/19 02:30:54;;;;;;;66.72;36.72;;;4.70;99.90;;;;;;2062193;28;20172;-71
2022/03/19 02:32:00;;;;;;;61.97;34.60;;;4.70;99.90;;;;;;2062843;28;20490;-71
2022/03/19 02:33:01;;;;;;;61.92;34.53;;;4.80;99.90;;;;;;2062797;28;20495;-70
2022/03/19 02:34:02;;;;;;;58.13;33.33;;;4.80;99.90;;;;;;2062635;28;20072;-71
2022/03/19 02:35:05;;;;;;;60.47;34.30;;;4.80;99.90;;;;;;2061803;28;20169;-70
2022/03/19 02:36:08;;;;;;;62.40;35.42;;;4.80;99.90;;;;;;2061861;28;20038;-70
2022/03/19 02:37:09;;;;;;;56.00;33.05;;;4.90;99.90;;;;;;2062147;28;20034;-70
2022/03/19 02:38:09;;;;;;;60.92;33.72;;;4.80;99.90;;;;;;2053865;28;20046;-69
2022/03/19 02:39:16;;;;;;;65.00;35.05;;;4.80;99.90;;;;;;2061911;28;20041;-69
2022/03/19 02:40:23;;;;;;;54.85;31.98;;;4.80;99.90;;;;;;2062057;28;20029;-70
2022/03/19 02:41:24;;;;;;;56.25;31.52;;;4.80;99.90;;;;;;2062102;28;20021;-70
2022/03/19 02:42:24;;;;;;;60.72;33.13;;;4.90;99.90;;;;;;2062888;28;20057;-71
2022/03/19 02:43:25;;;;;;;59.80;33.42;;;4.90;99.90;;;;;;2062536;28;20060;-70
2022/03/19 02:44:27;;;;;;;54.33;30.73;;;4.90;99.90;;;;;;2062433;28;20031;-70
2022/03/19 02:45:31;;;;;;;50.42;29.65;;;4.90;99.90;;;;;;2062429;28;20054;-70
2022/03/19 02:46:57;;;;;;;54.40;31.02;;;4.90;99.90;;;;;;2069297;28;20029;-69
2022/03/19 02:47:58;;;;;;;58.55;32.90;;;4.90;99.90;;;;;;2053922;28;20030;-71
2022/03/19 02:48:59;;;;;;;51.85;29.90;;;5.00;99.90;;;;;;2046140;28;20027;-71
2022/03/19 02:50:00;;;;;;;54.78;30.10;;;5.00;99.90;;;;;;2053905;28;20035;-70
2022/03/19 02:51:06;;;;;;;51.75;30.50;;;5.00;99.90;;;;;;2061976;28;20034;-70
2022/03/19 02:52:07;;;;;;;53.45;30.15;;;5.00;99.90;;;;;;2062328;28;20122;-70
2022/03/19 02:53:12;;;;;;;58.15;31.27;;;5.00;99.90;;;;;;2062809;28;20685;-72
2022/03/19 02:54:16;;;;;;;54.22;30.25;;;5.00;99.90;;;;;;2063481;28;20035;-70
2022/03/19 02:55:20;;;;;;;54.63;30.33;;;4.90;99.90;;;;;;2062845;28;20483;-71
2022/03/19 02:56:23;;;;;;;47.83;28.67;;;4.90;99.90;;;;;;2063137;28;20039;-71
2022/03/19 02:57:24;;;;;;;51.03;28.95;;;4.90;99.90;;;;;;2062803;28;20039;-71
2022/03/19 02:58:25;;;;;;;50.55;28.92;;;4.90;99.90;;;;;;2062671;28;20117;-71
2022/03/19 02:59:30;;;;;;;50.25;28.58;;;4.80;99.90;;;;;;2062307;28;20038;-71
2022/03/19 03:00:32;;;;;;;51.28;29.40;;;4.80;99.90;;;;;;2063056;28;20034;-71
2022/03/19 03:01:37;;;;;;;49.40;28.27;;;4.80;99.90;;;;;;2062881;28;20073;-71
2022/03/19 03:02:40;;;;;;;51.70;27.48;;;4.80;99.90;;;;;;2054875;28;20042;-71
2022/03/19 03:03:44;;;;;;;48.72;26.92;;;4.80;99.90;;;;;;2062471;28;20074;-71
2022/03/19 03:04:45;;;;;;;47.17;27.65;;;4.80;99.90;;;;;;2063138;28;20525;-70
2022/03/19 03:05:54;;;;;;;49.17;27.30;;;4.80;99.90;;;;;;2062862;28;20031;-70
2022/03/19 03:07:00;;;;;;;48.08;26.27;;;4.80;99.90;;;;;;2062379;28;20037;-70
2022/03/19 03:08:05;;;;;;;46.40;25.90;;;4.90;99.90;;;;;;2062411;28;20060;-71
2022/03/19 03:09:06;;;;;;;47.83;25.70;;;4.90;99.90;;;;;;2054006;28;20034;-71
2022/03/19 03:10:11;;;;;;;48.38;26.35;;;4.90;99.90;;;;;;2054321;28;20559;-72
2022/03/19 03:11:13;;;;;;;43.03;25.67;;;4.90;99.90;;;;;;2062329;28;20459;-70
2022/03/19 03:12:13;;;;;;;45.08;26.00;;;4.90;99.90;;;;;;2062001;28;20020;-70
2022/03/19 03:13:14;;;;;;;51.13;26.80;;;4.90;99.90;;;;;;2061877;28;20483;-73
2022/03/19 03:14:15;;;;;;;44.53;25.63;;;4.90;99.90;;;;;;2062076;28;20022;-70
2022/03/19 03:15:19;;;;;;;44.78;25.70;;;4.90;99.90;;;;;;2062303;28;20037;-72
2022/03/19 03:16:21;;;;;;;43.75;24.73;;;4.90;99.90;;;;;;2053724;28;20478;-70
2022/03/19 03:17:22;;;;;;;42.45;24.25;;;4.90;99.90;;;;;;2045708;28;20054;-70
2022/03/19 03:18:23;;;;;;;45.72;25.13;;;4.90;99.90;;;;;;2061533;28;20030;-71
2022/03/19 03:19:25;;;;;;;44.83;25.10;;;4.90;99.90;;;;;;2062461;28;20522;-71
2022/03/19 03:20:25;;;;;;;43.00;24.77;;;4.90;99.90;;;;;;2069870;28;20079;-70
2022/03/19 03:21:29;;;;;;;41.45;23.70;;;4.80;99.90;;;;;;2069871;28;20580;-69
2022/03/19 03:22:36;;;;;;;39.60;23.60;;;4.80;99.90;;;;;;2062309;28;20030;-70
2022/03/19 03:23:39;;;;;;;41.95;23.48;;;4.80;99.90;;;;;;2061627;28;20505;-70
2022/03/19 03:24:39;;;;;;;41.92;25.95;;;4.80;99.90;;;;;;2095502;28;20569;-70
2022/03/19 03:25:40;;;;;;;48.35;28.02;;;4.90;99.90;;;;;;2095407;28;20086;-70
2022/03/19 03:26:42;;;;;;;47.30;26.77;;;4.90;99.90;;;;;;2053573;28;20704;-70
2022/03/19 03:27:46;;;;;;;43.50;25.75;;;4.90;99.90;;;;;;2061383;28;20038;-69
2022/03/19 03:28:47;;;;;;;48.90;27.10;;;4.90;99.90;;;;;;2061069;28;20054;-71
2022/03/19 03:29:48;;;;;;;43.72;24.80;;;4.90;99.90;;;;;;2061550;28;20133;-69
2022/03/19 03:30:48;;;;;;;46.17;27.58;;;4.90;99.90;;;;;;2061979;28;20076;-71
2022/03/19 03:31:49;;;;;;;51.60;29.23;;;4.90;99.90;;;;;;2062008;28;20529;-70
2022/03/19 03:32:49;;;;;;;54.88;31.30;;;4.90;99.90;;;;;;2061900;28;20041;-71
2022/03/19 03:33:50;;;;;;;57.13;33.38;;;4.90;99.90;;;;;;2061465;28;20054;-70
2022/03/19 03:34:50;;;;;;;57.30;33.72;;;4.80;99.90;;;;;;2061124;28;20035;-70
2022/03/19 03:35:51;;;;;;;59.13;34.03;;;4.80;99.90;;;;;;2069247;28;20026;-70
2022/03/19 03:36:52;;;;;;;62.78;35.42;;;4.80;99.90;;;;;;2069477;28;20574;-70
2022/03/19 03:37:53;;;;;;;62.33;34.97;;;4.80;99.90;;;;;;2061488;28;20398;-72
2022/03/19 03:38:54;;;;;;;60.42;34.80;;;4.70;99.90;;;;;;2061525;28;20137;-72
2022/03/19 03:39:54;;;;;;;60.47;33.42;;;4.70;99.90;;;;;;2062154;28;20030;-70
2022/03/19 03:40:55;;;;;;;57.72;34.60;;;4.60;99.90;;;;;;2062258;28;20029;-70
2022/03/19 03:41:56;;;;;;;59.53;34.35;;;4.60;99.90;;;;;;2062191;28;20800;-72
2022/03/19 03:42:56;;;;;;;59.42;34.45;;;4.50;99.90;;;;;;2061477;28;20034;-69
2022/03/19 03:43:57;;;;;;;59.97;33.90;;;4.50;99.90;;;;;;2061290;28;20054;-72
2022/03/19 03:44:58;;;;;;;58.35;33.17;;;4.50;99.90;;;;;;2061677;28;20030;-71
2022/03/19 03:46:00;;;;;;;56.80;32.47;;;4.40;99.90;;;;;;2061963;28;20042;-71
2022/03/19 03:47:00;;;;;;;57.38;33.42;;;4.40;99.90;;;;;;2061329;28;20034;-71
2022/03/19 03:48:01;;;;;;;57.78;32.42;;;4.30;99.90;;;;;;2061429;28;20604;-71
2022/03/19 03:49:02;;;;;;;56.50;32.13;;;4.30;99.90;;;;;;2061865;28;20034;-71
2022/03/19 03:50:03;;;;;;;52.55;31.35;;;4.30;99.90;;;;;;2069323;28;20046;-72
2022/03/19 03:51:06;;;;;;;57.13;32.08;;;4.20;99.90;;;;;;2069321;28;20492;-71
2022/03/19 03:52:07;;;;;;;53.83;31.30;;;4.20;99.90;;;;;;2061416;28;20034;-71
2022/03/19 03:53:08;;;;;;;52.67;31.17;;;4.20;99.90;;;;;;2069271;28;20026;-71
2022/03/19 03:54:09;;;;;;;54.50;31.42;;;4.10;99.90;;;;;;2053260;28;20104;-71
2022/03/19 03:55:12;;;;;;;57.47;31.67;;;4.10;99.90;;;;;;2044991;28;20106;-71
2022/03/19 03:56:13;;;;;;;54.65;30.98;;;4.10;99.90;;;;;;2061322;28;20053;-71
2022/03/19 03:57:13;;;;;;;53.45;31.38;;;4.00;99.90;;;;;;2062100;28;20067;-71
2022/03/19 03:58:14;;;;;;;53.40;31.52;;;4.00;99.90;;;;;;2063341;28;20022;-71
2022/03/19 03:59:15;;;;;;;54.90;30.80;;;4.00;99.90;;;;;;2070614;28;20038;-70
2022/03/19 04:00:16;;;;;;;53.20;30.85;;;4.00;99.90;;;;;;2070754;28;20026;-70
2022/03/19 04:01:17;;;;;;;58.58;32.35;;;4.00;99.90;;;;;;2062783;28;20421;-70
2022/03/19 04:02:17;;;;;;;51.42;30.38;;;4.00;99.90;;;;;;2062774;28;20027;-70
2022/03/19 04:03:18;;;;;;;54.17;30.30;;;4.00;99.90;;;;;;2062723;28;20163;-71
2022/03/19 04:04:19;;;;;;;54.10;30.23;;;3.90;99.90;;;;;;2062766;28;20030;-71
2022/03/19 04:05:19;;;;;;;54.70;31.10;;;4.00;99.90;;;;;;2063245;28;20504;-70
2022/03/19 04:06:20;;;;;;;53.40;30.33;;;3.90;99.90;;;;;;2062399;28;20042;-71
2022/03/19 04:07:21;;;;;;;52.92;30.35;;;3.90;99.90;;;;;;2062666;28;20128;-71
2022/03/19 04:08:22;;;;;;;54.67;29.33;;;4.00;99.90;;;;;;2062709;28;20029;-71
2022/03/19 04:09:23;;;;;;;53.20;30.10;;;3.90;99.90;;;;;;2070663;28;20343;-72
2022/03/19 04:10:23;;;;;;;55.15;30.65;;;4.00;99.90;;;;;;2063243;28;20034;-71
2022/03/19 04:11:24;;;;;;;51.35;29.27;;;4.00;99.90;;;;;;2063355;28;20037;-73
2022/03/19 04:12:25;;;;;;;50.90;28.38;;;4.00;99.90;;;;;;2063214;28;20037;-70
2022/03/19 04:13:25;;;;;;;50.55;28.92;;;4.10;99.90;;;;;;2063404;28;20737;-70
2022/03/19 04:14:26;;;;;;;51.30;28.42;;;4.20;99.90;;;;;;2070623;28;20079;-71
2022/03/19 04:15:27;;;;;;;48.33;27.58;;;4.30;99.90;;;;;;2062033;28;20038;-71
2022/03/19 04:16:27;;;;;;;48.67;28.15;;;4.30;99.90;;;;;;2054361;28;20066;-71
2022/03/19 04:17:28;;;;;;;56.28;28.27;;;4.40;99.90;;;;;;2063313;28;20026;-71
2022/03/19 04:18:28;;;;;;;48.10;26.58;;;4.40;99.90;;;;;;2063577;28;20130;-70
2022/03/19 04:19:29;;;;;;;48.45;26.42;;;4.50;99.90;;;;;;2071144;28;20079;-71
2022/03/19 04:20:30;;;;;;;45.80;26.02;;;4.50;99.90;;;;;;2070966;28;20030;-71
2022/03/19 04:21:31;;;;;;;44.88;25.30;;;4.60;99.90;;;;;;2063908;28;20048;-71
2022/03/19 04:22:36;;;;;;;49.25;25.77;;;4.50;99.90;;;;;;2064231;28;20030;-71
2022/03/19 04:23:37;;;;;;;45.15;25.35;;;4.60;99.90;;;;;;2071737;28;20036;-71
2022/03/19 04:24:38;;;;;;;45.45;25.33;;;4.60;99.90;;;;;;2071236;28;20034;-71
2022/03/19 04:25:40;;;;;;;44.15;25.42;;;4.60;99.90;;;;;;2063407;28;20057;-71
2022/03/19 04:26:40;;;;;;;43.67;24.67;;;4.60;99.90;;;;;;2064330;28;20030;-72
2022/03/19 04:27:42;;;;;;;43.95;24.80;;;4.60;99.90;;;;;;2072454;28;20068;-72
2022/03/19 04:28:43;;;;;;;44.13;23.92;;;4.60;99.90;;;;;;2072047;28;20029;-71
2022/03/19 04:29:45;;;;;;;50.65;29.85;;;4.50;99.90;;;;;;2055779;28;20091;-72
2022/03/19 04:30:45;;;;;;;47.58;28.65;;;4.50;99.90;;;;;;2047994;28;20051;-71
2022/03/19 04:31:46;;;;;;;49.30;28.20;;;4.50;99.90;;;;;;2063943;28;20037;-72
2022/03/19 04:32:49;;;;;;;46.30;26.83;;;4.50;99.90;;;;;;2065147;28;20537;-71
2022/03/19 04:33:50;;;;;;;47.25;26.85;;;4.50;99.90;;;;;;2065128;28;20517;-72
2022/03/19 04:34:50;;;;;;;48.85;27.73;;;4.40;99.90;;;;;;2064348;28;20026;-71
2022/03/19 04:37:10;;;;;;;47.00;26.88;;;4.40;99.90;;;;;;2063327;28;20409;-71
2022/03/19 04:38:14;;;;;;;49.15;27.05;;;4.40;99.90;;;;;;2062830;28;20737;-71
2022/03/19 04:39:15;;;;;;;52.55;28.27;;;4.40;99.90;;;;;;2062618;28;20027;-71
2022/03/19 04:40:15;;;;;;;49.70;28.05;;;4.40;99.90;;;;;;2063501;28;20083;-71
2022/03/19 04:41:16;;;;;;;49.00;27.30;;;4.40;99.90;;;;;;2063874;28;20056;-71
2022/03/19 04:42:17;;;;;;;50.13;27.38;;;4.40;99.90;;;;;;2071068;28;20022;-71
2022/03/19 04:43:19;;;;;;;50.20;27.27;;;4.30;99.90;;;;;;2071161;28;20203;-71
2022/03/19 04:44:20;;;;;;;47.28;26.42;;;4.30;99.90;;;;;;2064123;28;20470;-71
2022/03/19 04:45:21;;;;;;;42.90;25.52;;;4.30;99.90;;;;;;2062961;28;20069;-71
2022/03/19 04:46:21;;;;;;;45.22;25.30;;;4.30;99.90;;;;;;2063200;28;20433;-71
2022/03/19 04:47:22;;;;;;;45.63;25.60;;;4.20;99.90;;;;;;2063221;28;20066;-71
2022/03/19 04:48:23;;;;;;;47.83;26.65;;;4.10;99.90;;;;;;2062759;28;20062;-71
2022/03/19 04:49:23;;;;;;;48.10;26.70;;;4.10;99.90;;;;;;2062371;28;20499;-71
2022/03/19 04:50:24;;;;;;;53.65;28.20;;;4.10;99.90;;;;;;2070653;28;20018;-71
2022/03/19 04:51:32;;;;;;;54.88;28.13;;;4.10;99.90;;;;;;2070583;28;20736;-71
2022/03/19 04:52:34;;;;;;;49.28;26.98;;;4.00;99.90;;;;;;2069912;28;20037;-70
2022/03/19 04:53:35;;;;;;;48.60;27.17;;;4.00;99.90;;;;;;2063122;28;20072;-71
2022/03/19 04:54:35;;;;;;;47.15;25.98;;;4.00;99.90;;;;;;2062801;28;20498;-72
2022/03/19 04:55:37;;;;;;;48.13;26.67;;;4.00;99.90;;;;;;2070492;28;20097;-71
2022/03/19 04:56:39;;;;;;;45.08;26.30;;;3.90;99.90;;;;;;2062325;28;20049;-71
2022/03/19 04:57:41;;;;;;;45.17;25.67;;;3.90;99.90;;;;;;2062574;28;20034;-71
2022/03/19 04:58:41;;;;;;;46.42;26.42;;;3.80;99.90;;;;;;2070723;28;20021;-71
2022/03/19 04:59:42;;;;;;;47.17;26.38;;;3.80;99.90;;;;;;2070717;28;20038;-71
2022/03/19 05:00:43;;;;;;;45.53;25.73;;;3.80;99.90;;;;;;2063514;28;20035;-72
2022/03/19 05:01:43;;;;;;;43.65;26.23;;;3.80;99.90;;;;;;2063733;28;20062;-72
2022/03/19 05:02:44;;;;;;;49.80;27.75;;;3.70;99.90;;;;;;2063353;28;20091;-72
2022/03/19 05:03:45;;;;;;;46.80;26.48;;;3.70;99.90;;;;;;2062409;28;20048;-72
2022/03/19 05:04:46;;;;;;;42.30;25.20;;;3.70;99.90;;;;;;2053998;28;20046;-71
2022/03/19 05:05:46;;;;;;;43.53;26.15;;;3.70;99.90;;;;;;2062500;28;20046;-71
2022/03/19 05:06:47;;;;;;;46.35;25.80;;;3.60;99.90;;;;;;2062555;28;20038;-72
2022/03/19 05:07:47;;;;;;;48.95;26.70;;;3.60;99.90;;;;;;2062277;28;20722;-72
2022/03/19 05:11:12;;;;;;;45.72;25.27;;;3.60;99.90;;;;;;2069999;28;20038;-72
2022/03/19 05:11:31;;;;;;;47.22;26.65;;;3.50;99.90;;;;;;2062805;28;20701;-71
2022/03/19 05:12:33;;;;;;;47.50;26.48;;;3.50;99.90;;;;;;2063137;28;20030;-71
2022/03/19 05:13:34;;;;;;;46.25;26.27;;;3.50;99.90;;;;;;2062916;28;20082;-72
2022/03/19 05:14:34;;;;;;;52.85;26.98;;;3.50;99.90;;;;;;2063047;28;20485;-71
2022/03/19 05:15:35;;;;;;;47.40;26.33;;;3.50;99.90;;;;;;2070181;28;20038;-71
2022/03/19 05:16:36;;;;;;;46.00;26.27;;;3.60;99.90;;;;;;2062145;28;20101;-71
2022/03/19 05:17:38;;;;;;;45.50;26.23;;;3.60;99.90;;;;;;2062249;28;20084;-71
2022/03/19 05:18:39;;;;;;;46.55;26.65;;;3.60;99.90;;;;;;2062224;28;20037;-71
2022/03/19 05:19:39;;;;;;;47.92;26.92;;;3.60;99.90;;;;;;2062222;28;20049;-71
2022/03/19 05:20:40;;;;;;;48.00;25.88;;;3.70;99.90;;;;;;2070357;28;20509;-70
2022/03/19 05:21:43;;;;;;;45.47;26.92;;;3.70;99.90;;;;;;2062313;28;20056;-72
2022/03/19 05:22:43;;;;;;;50.65;27.70;;;3.70;99.90;;;;;;2062360;28;20098;-71
2022/03/19 05:23:47;;;;;;;51.15;27.80;;;3.70;99.90;;;;;;2063184;28;20034;-71